Time;durP1;ratioP1;P1;durP2;ratioP2;P2;SDS_P1;SDS_P2;PMS_P1;PMS_P2;Temp;Humidity;BMP_temperature;BMP_pressure;BME280_temperature;BME280_humidity;BME280_pressure;Samples;Min_cycle;Max_cycle;Signal;HPM_P1;HPM_P2
2023/06/25 00:02:27;;;;;;;17.90;12.90;;;;;;;13.49;100.00;99244.56;137185;1276;22230;-82
2023/06/25 00:05:28;;;;;;;17.60;13.10;;;;;;;13.46;100.00;99248.04;137184;1276;22200;-82
2023/06/25 00:08:29;;;;;;;18.40;12.90;;;;;;;13.45;100.00;99249.79;137098;1276;22235;-82
2023/06/25 00:11:30;;;;;;;15.60;11.70;;;;;;;13.39;100.00;99253.41;137098;1276;22496;-82
2023/06/25 00:14:31;;;;;;;15.60;12.70;;;;;;;13.30;100.00;99255.27;137252;1276;22244;-82
2023/06/25 00:17:32;;;;;;;14.60;10.10;;;;;;;13.23;100.00;99252.95;137219;1276;22497;-82
2023/06/25 00:20:34;;;;;;;15.00;10.90;;;;;;;13.15;100.00;99252.34;137200;1276;22167;-80
2023/06/25 00:23:35;;;;;;;16.20;11.50;;;;;;;13.08;100.00;99251.92;137156;1276;22378;-81
2023/06/25 00:26:36;;;;;;;18.10;11.20;;;;;;;13.04;100.00;99250.33;137172;1276;22628;-83
2023/06/25 00:29:37;;;;;;;13.50;11.50;;;;;;;13.04;100.00;99247.18;137286;1276;22204;-82
2023/06/25 00:32:39;;;;;;;14.10;10.60;;;;;;;13.02;100.00;99244.35;136986;1276;22774;-82
2023/06/25 00:35:40;;;;;;;12.40;10.90;;;;;;;12.96;100.00;99245.32;137094;1276;22205;-82
2023/06/25 00:38:42;;;;;;;14.30;11.60;;;;;;;12.88;100.00;99248.40;137060;1276;22220;-82
2023/06/25 00:41:43;;;;;;;15.00;11.70;;;;;;;12.81;100.00;99244.32;137126;1276;22190;-81
2023/06/25 00:44:44;;;;;;;12.90;10.10;;;;;;;12.73;100.00;99240.59;137097;1276;22158;-82
2023/06/25 00:47:45;;;;;;;16.00;10.60;;;;;;;12.69;100.00;99239.84;137192;1276;22546;-81
2023/06/25 00:50:46;;;;;;;13.40;10.40;;;;;;;12.66;100.00;99241.55;137142;1276;22700;-81
2023/06/25 00:53:47;;;;;;;13.60;10.40;;;;;;;12.62;100.00;99239.95;136722;1276;22517;-80
2023/06/25 00:56:48;;;;;;;14.10;10.20;;;;;;;12.60;100.00;99238.52;137126;1276;22148;-81
2023/06/25 00:59:49;;;;;;;11.50;9.60;;;;;;;12.56;100.00;99232.20;136269;1274;645844;-82
2023/06/25 01:02:51;;;;;;;15.30;10.70;;;;;;;12.51;100.00;99230.41;136924;1276;22561;-83
2023/06/25 01:05:52;;;;;;;15.30;10.30;;;;;;;12.51;100.00;99230.23;137177;1267;22581;-80
2023/06/25 01:08:53;;;;;;;22.40;11.30;;;;;;;12.48;100.00;99226.02;137157;1276;22914;-80
2023/06/25 01:11:54;;;;;;;15.00;11.30;;;;;;;12.45;100.00;99224.06;136801;1276;22283;-81
2023/06/25 01:14:57;;;;;;;14.40;10.80;;;;;;;12.40;100.00;99218.60;137336;1276;22641;-81
2023/06/25 01:17:59;;;;;;;12.50;11.20;;;;;;;12.36;100.00;99216.48;137294;1276;22530;-80
2023/06/25 01:21:00;;;;;;;16.90;12.10;;;;;;;12.32;100.00;99213.81;137033;1276;22310;-81
2023/06/25 01:24:01;;;;;;;14.00;10.80;;;;;;;12.31;100.00;99208.90;137223;1276;24204;-81
2023/06/25 01:27:04;;;;;;;14.30;11.80;;;;;;;12.26;100.00;99206.77;137187;1276;22148;-81
2023/06/25 01:30:08;;;;;;;14.10;12.50;;;;;;;12.25;100.00;99205.54;137208;1276;22203;-80
2023/06/25 01:33:09;;;;;;;13.20;11.50;;;;;;;12.23;100.00;99203.05;137211;1276;22177;-81
2023/06/25 01:36:11;;;;;;;13.10;11.70;;;;;;;12.20;100.00;99200.77;137047;1276;22197;-81
2023/06/25 01:39:12;;;;;;;13.70;12.30;;;;;;;12.20;100.00;99193.79;137275;1276;22201;-81
2023/06/25 01:42:13;;;;;;;15.70;12.30;;;;;;;12.18;100.00;99192.71;137209;1276;22404;-82
2023/06/25 01:45:14;;;;;;;12.50;11.20;;;;;;;12.15;100.00;99186.39;137115;1276;22539;-82
2023/06/25 01:48:15;;;;;;;13.60;12.10;;;;;;;12.10;100.00;99188.05;137245;1276;22562;-81
2023/06/25 01:51:16;;;;;;;16.20;11.70;;;;;;;12.10;100.00;99191.90;137221;1276;22143;-81
2023/06/25 01:54:17;;;;;;;13.70;11.10;;;;;;;12.09;100.00;99193.80;137124;1276;22391;-81
2023/06/25 01:57:18;;;;;;;20.20;13.00;;;;;;;12.07;100.00;99195.53;137178;1276;22640;-82
2023/06/25 02:00:20;;;;;;;14.00;12.20;;;;;;;12.11;100.00;99190.70;137269;1276;22229;-82
2023/06/25 02:03:21;;;;;;;14.80;12.60;;;;;;;12.06;100.00;99188.36;137190;1276;22210;-81
2023/06/25 02:06:22;;;;;;;13.60;12.10;;;;;;;12.01;100.00;99191.63;137158;1276;22205;-81
2023/06/25 02:09:23;;;;;;;17.50;12.00;;;;;;;12.02;100.00;99193.20;137221;1276;22679;-82
2023/06/25 02:12:24;;;;;;;13.60;10.60;;;;;;;12.04;100.00;99191.13;137287;1276;22192;-81
2023/06/25 02:15:25;;;;;;;12.00;10.80;;;;;;;12.02;100.00;99189.54;137074;1276;22623;-81
2023/06/25 02:18:26;;;;;;;14.90;10.30;;;;;;;12.03;100.00;99186.92;137146;1276;22673;-81
2023/06/25 02:21:27;;;;;;;13.50;11.40;;;;;;;12.01;100.00;99189.70;137055;1276;22560;-82
2023/06/25 02:24:29;;;;;;;17.60;11.90;;;;;;;12.02;100.00;99187.27;137104;1273;22196;-81
2023/06/25 02:27:30;;;;;;;14.70;11.30;;;;;;;11.99;100.00;99187.41;137273;1276;22657;-81
2023/06/25 02:30:31;;;;;;;23.10;12.50;;;;;;;11.98;100.00;99189.31;136898;1276;22230;-82
2023/06/25 02:33:32;;;;;;;15.10;11.70;;;;;;;12.00;100.00;99191.61;137026;1276;22838;-81
2023/06/25 02:36:33;;;;;;;16.90;12.20;;;;;;;12.03;100.00;99192.17;137229;1276;22641;-81
2023/06/25 02:39:34;;;;;;;14.40;12.10;;;;;;;12.03;100.00;99186.94;136891;1274;22293;-81
2023/06/25 02:42:35;;;;;;;20.10;13.60;;;;;;;12.03;100.00;99183.63;136959;1276;22471;-81
2023/06/25 02:45:36;;;;;;;15.10;13.60;;;;;;;12.05;100.00;99185.56;137174;1276;22558;-82
2023/06/25 02:48:37;;;;;;;17.80;15.00;;;;;;;12.07;100.00;99186.80;137240;1276;22195;-82
2023/06/25 02:51:38;;;;;;;22.00;16.70;;;;;;;12.11;100.00;99184.93;137161;1276;22241;-82
2023/06/25 02:54:39;;;;;;;19.00;15.40;;;;;;;12.17;100.00;99180.14;137078;1276;24237;-82
2023/06/25 02:57:40;;;;;;;19.50;15.50;;;;;;;12.26;100.00;99179.88;137347;1276;22124;-82
2023/06/25 03:00:42;;;;;;;21.20;16.50;;;;;;;12.32;100.00;99180.30;137045;1276;22634;-82
2023/06/25 03:03:43;;;;;;;21.00;16.90;;;;;;;12.38;100.00;99179.66;137159;1276;22180;-81
2023/06/25 03:06:44;;;;;;;22.70;18.30;;;;;;;12.43;100.00;99177.27;137233;1276;22141;-81
2023/06/25 03:09:45;;;;;;;21.20;18.30;;;;;;;12.52;100.00;99182.60;136897;1276;22383;-81
2023/06/25 03:12:46;;;;;;;24.80;16.90;;;;;;;12.61;100.00;99184.08;137164;1276;23043;-81
2023/06/25 03:15:47;;;;;;;23.90;17.50;;;;;;;12.63;100.00;99186.36;137336;1276;22327;-81
2023/06/25 03:18:48;;;;;;;20.80;17.50;;;;;;;12.68;100.00;99186.73;137048;1276;22126;-82
2023/06/25 03:21:49;;;;;;;28.30;17.40;;;;;;;12.73;100.00;99185.39;137154;1276;22251;-82
2023/06/25 03:24:50;;;;;;;23.40;17.20;;;;;;;12.80;100.00;99181.78;137140;1276;22566;-81
2023/06/25 03:27:51;;;;;;;22.00;16.40;;;;;;;12.91;100.00;99179.08;137168;1276;22286;-82
2023/06/25 03:30:52;;;;;;;21.70;16.10;;;;;;;12.99;100.00;99176.71;137083;1276;22257;-82
2023/06/25 03:33:53;;;;;;;19.30;14.70;;;;;;;13.07;100.00;99177.84;137116;1276;22230;-81
2023/06/25 03:36:54;;;;;;;18.00;12.00;;;;;;;13.13;100.00;99175.79;137221;1272;22199;-82
2023/06/25 03:39:55;;;;;;;12.10;9.90;;;;;;;13.18;100.00;99178.64;137164;1276;22701;-82
2023/06/25 03:42:56;;;;;;;20.10;13.00;;;;;;;13.22;100.00;99183.91;137119;1276;22442;-82
2023/06/25 03:45:57;;;;;;;16.00;11.50;;;;;;;13.30;100.00;99180.81;137127;1276;22538;-81
2023/06/25 03:48:59;;;;;;;12.10;9.40;;;;;;;13.37;100.00;99180.86;137065;1276;22615;-82
2023/06/25 03:52:00;;;;;;;9.70;8.30;;;;;;;13.46;100.00;99191.58;137087;1276;22383;-81
2023/06/25 03:55:01;;;;;;;13.70;10.40;;;;;;;13.61;100.00;99181.69;137190;1276;22621;-81
2023/06/25 03:58:03;;;;;;;10.60;8.00;;;;;;;13.74;100.00;99186.66;137171;1276;22492;-82
2023/06/25 04:01:04;;;;;;;8.50;7.60;;;;;;;13.77;100.00;99189.46;137040;1276;22148;-82
2023/06/25 04:04:05;;;;;;;11.40;9.10;;;;;;;13.87;100.00;99191.98;137206;1276;22219;-82
2023/06/25 04:07:06;;;;;;;16.40;10.70;;;;;;;14.03;100.00;99195.02;137213;1276;22554;-82
2023/06/25 04:10:07;;;;;;;16.70;13.60;;;;;;;14.27;100.00;99191.24;137066;1276;22476;-82
2023/06/25 04:13:08;;;;;;;21.50;16.00;;;;;;;14.61;100.00;99184.86;137158;1276;22558;-80
2023/06/25 04:16:09;;;;;;;31.50;22.90;;;;;;;14.91;100.00;99184.90;137079;1273;22971;-82
2023/06/25 04:19:10;;;;;;;21.00;18.70;;;;;;;15.26;100.00;99186.98;137037;1276;22412;-82
2023/06/25 04:22:12;;;;;;;19.70;16.50;;;;;;;15.58;100.00;99189.39;137100;1273;22815;-81
2023/06/25 04:25:13;;;;;;;16.70;14.90;;;;;;;15.83;100.00;99192.50;137040;1276;22181;-82
2023/06/25 04:28:14;;;;;;;18.70;15.20;;;;;;;16.00;100.00;99185.94;137107;1276;22413;-82
2023/06/25 04:31:15;;;;;;;18.90;15.60;;;;;;;16.09;100.00;99185.55;137252;1273;22557;-81
2023/06/25 04:34:16;;;;;;;17.80;14.50;;;;;;;16.26;100.00;99176.85;137252;1276;22324;-81
2023/06/25 04:37:17;;;;;;;21.20;14.60;;;;;;;16.52;100.00;99176.54;137237;1276;22233;-81
2023/06/25 04:40:18;;;;;;;21.00;16.60;;;;;;;16.68;100.00;99172.23;137267;1273;22149;-82
2023/06/25 04:43:20;;;;;;;19.90;15.40;;;;;;;16.85;100.00;99169.11;137227;1273;22183;-81
2023/06/25 04:46:21;;;;;;;17.50;15.10;;;;;;;17.00;100.00;99165.83;137304;1276;22167;-82
2023/06/25 04:49:22;;;;;;;20.40;16.20;;;;;;;17.11;100.00;99166.96;136922;1276;22157;-81
2023/06/25 04:52:23;;;;;;;19.10;15.80;;;;;;;17.17;100.00;99167.78;137144;1276;22169;-80
2023/06/25 04:55:24;;;;;;;25.80;14.70;;;;;;;17.27;100.00;99166.62;137190;1276;22256;-80
2023/06/25 04:58:26;;;;;;;20.90;17.10;;;;;;;17.36;100.00;99163.73;137253;1276;22229;-81
2023/06/25 05:01:27;;;;;;;18.50;14.70;;;;;;;17.30;100.00;99160.09;137256;1276;22338;-80
2023/06/25 05:04:28;;;;;;;18.80;13.90;;;;;;;17.49;100.00;99158.86;137265;1276;22340;-80
2023/06/25 05:07:29;;;;;;;17.60;14.90;;;;;;;17.64;100.00;99161.53;137198;1276;22680;-80
2023/06/25 05:10:30;;;;;;;16.50;14.80;;;;;;;17.62;100.00;99159.60;137224;1276;22350;-80
2023/06/25 05:13:31;;;;;;;25.30;17.40;;;;;;;17.83;100.00;99157.27;137235;1276;22256;-83
2023/06/25 05:16:32;;;;;;;19.30;15.80;;;;;;;18.08;100.00;99155.52;137215;1276;22293;-82
2023/06/25 05:19:33;;;;;;;52.70;43.80;;;;;;;18.10;100.00;99153.39;137218;1276;22172;-82
2023/06/25 05:22:34;;;;;;;21.10;19.00;;;;;;;18.75;100.00;99155.11;137165;1276;22911;-82
2023/06/25 05:25:35;;;;;;;23.90;19.90;;;;;;;19.18;100.00;99157.58;137187;1276;22250;-82
2023/06/25 05:28:36;;;;;;;17.00;15.10;;;;;;;19.53;100.00;99160.13;137135;1276;22192;-82
2023/06/25 05:31:37;;;;;;;16.40;14.80;;;;;;;19.39;100.00;99157.75;136959;1276;22604;-81
2023/06/25 05:34:39;;;;;;;18.00;16.10;;;;;;;19.16;100.00;99155.16;137160;1276;22209;-83
2023/06/25 05:37:40;;;;;;;26.20;21.20;;;;;;;19.12;100.00;99152.39;136915;1275;22567;-82
2023/06/25 05:40:41;;;;;;;18.80;15.50;;;;;;;19.84;100.00;99148.59;137142;1276;22208;-82
2023/06/25 05:43:42;;;;;;;19.00;14.70;;;;;;;19.79;100.00;99154.33;137138;1276;22151;-82
2023/06/25 05:46:43;;;;;;;20.60;17.60;;;;;;;19.76;100.00;99153.87;136961;1276;22205;-82
2023/06/25 05:49:44;;;;;;;16.50;14.80;;;;;;;20.25;100.00;99154.44;137150;1276;22204;-83
2023/06/25 05:52:45;;;;;;;16.10;14.50;;;;;;;20.60;100.00;99161.63;137051;1276;22211;-83
2023/06/25 05:55:46;;;;;;;17.00;15.20;;;;;;;20.50;100.00;99163.27;137051;1276;22381;-83
2023/06/25 05:58:47;;;;;;;17.90;14.40;;;;;;;20.31;100.00;99168.10;137016;1276;22540;-82
2023/06/25 06:01:48;;;;;;;16.80;14.70;;;;;;;20.14;100.00;99162.46;137187;1276;22189;-83
2023/06/25 06:04:49;;;;;;;16.20;14.00;;;;;;;20.23;100.00;99160.13;136900;1276;22275;-83
2023/06/25 06:07:51;;;;;;;16.10;13.80;;;;;;;20.49;100.00;99162.41;137043;1276;22304;-83
2023/06/25 06:10:52;;;;;;;15.20;13.60;;;;;;;20.41;100.00;99160.65;137065;1276;22180;-83
2023/06/25 06:13:53;;;;;;;19.20;13.60;;;;;;;20.57;100.00;99158.34;137146;1266;22236;-83
2023/06/25 06:16:54;;;;;;;18.10;13.20;;;;;;;21.21;100.00;99155.70;136890;1276;22204;-83
2023/06/25 06:19:55;;;;;;;16.00;13.50;;;;;;;21.76;100.00;99154.77;137041;1276;22209;-84
2023/06/25 06:22:57;;;;;;;19.70;13.70;;;;;;;21.51;100.00;99150.50;136803;1276;22517;-84
2023/06/25 06:25:58;;;;;;;15.00;13.50;;;;;;;21.47;100.00;99151.30;137046;1276;22493;-84
2023/06/25 06:29:03;;;;;;;14.50;12.90;;;;;;;21.59;100.00;99152.05;137292;1273;22557;-84
2023/06/25 06:32:04;;;;;;;34.60;31.00;;;;;;;21.48;100.00;99148.63;137068;1276;22212;-83
2023/06/25 06:35:05;;;;;;;18.60;14.60;;;;;;;21.62;100.00;99147.72;137005;1276;22288;-82
2023/06/25 06:38:06;;;;;;;17.60;14.10;;;;;;;21.77;100.00;99149.98;137082;1276;22554;-83
2023/06/25 06:41:07;;;;;;;16.50;13.90;;;;;;;21.68;100.00;99145.80;137005;1276;22368;-81
2023/06/25 06:44:09;;;;;;;16.20;13.70;;;;;;;21.61;100.00;99147.02;137037;1276;22195;-81
2023/06/25 06:47:10;;;;;;;14.70;13.20;;;;;;;21.72;100.00;99146.40;136810;1276;22699;-81
2023/06/25 06:50:11;;;;;;;17.30;14.40;;;;;;;22.09;100.00;99141.97;137138;1276;22474;-83
2023/06/25 06:53:12;;;;;;;16.50;12.40;;;;;;;22.60;100.00;99141.13;136728;1276;22187;-83
2023/06/25 06:56:13;;;;;;;16.20;14.00;;;;;;;22.84;100.00;99143.19;136828;1276;22666;-81
2023/06/25 06:59:14;;;;;;;16.60;14.50;;;;;;;22.66;100.00;99138.98;137218;1276;22703;-82
2023/06/25 07:02:15;;;;;;;15.40;13.00;;;;;;;22.40;100.00;99143.14;136844;1276;22193;-83
2023/06/25 07:05:16;;;;;;;16.10;13.30;;;;;;;22.56;100.00;99137.16;136845;1270;24224;-83
2023/06/25 07:08:17;;;;;;;14.50;12.90;;;;;;;22.19;100.00;99136.54;137192;1276;23019;-83
2023/06/25 07:11:19;;;;;;;15.00;13.60;;;;;;;22.43;100.00;99136.14;136889;1270;22284;-83
2023/06/25 07:14:20;;;;;;;15.90;14.30;;;;;;;22.48;100.00;99138.64;137086;1276;22257;-84
2023/06/25 07:17:21;;;;;;;15.80;14.00;;;;;;;22.62;100.00;99139.98;137115;1276;22158;-83
2023/06/25 07:20:22;;;;;;;14.70;13.20;;;;;;;22.58;100.00;99139.95;137016;1276;22539;-83
2023/06/25 07:23:23;;;;;;;14.30;13.00;;;;;;;22.59;100.00;99134.26;137143;1276;22224;-83
2023/06/25 07:26:24;;;;;;;15.30;13.70;;;;;;;22.54;100.00;99133.15;137156;1276;22171;-83
2023/06/25 07:29:25;;;;;;;19.50;13.60;;;;;;;22.64;100.00;99129.84;137017;1276;22705;-84
2023/06/25 07:32:26;;;;;;;14.90;12.90;;;;;;;22.96;100.00;99126.14;136986;1276;22679;-83
2023/06/25 07:35:27;;;;;;;14.90;13.30;;;;;;;23.36;100.00;99126.87;137024;1276;22551;-82
2023/06/25 07:38:28;;;;;;;17.90;13.40;;;;;;;23.60;100.00;99122.16;137293;1276;22235;-82
2023/06/25 07:41:29;;;;;;;13.40;12.00;;;;;;;23.74;100.00;99121.80;136980;1276;22205;-82
2023/06/25 07:44:31;;;;;;;14.90;12.60;;;;;;;24.04;100.00;99120.85;136851;1276;22710;-82
2023/06/25 07:47:32;;;;;;;11.70;10.50;;;;;;;24.22;100.00;99123.56;137196;1264;22238;-82
2023/06/25 07:50:33;;;;;;;13.90;12.40;;;;;;;24.18;100.00;99124.77;136883;1276;22575;-81
2023/06/25 07:53:34;;;;;;;13.10;11.80;;;;;;;23.80;100.00;99121.05;136837;1276;22219;-82
2023/06/25 07:56:35;;;;;;;13.60;11.90;;;;;;;23.99;100.00;99124.59;137204;1276;22684;-82
2023/06/25 07:59:36;;;;;;;12.40;11.00;;;;;;;23.92;100.00;99121.45;136816;1276;22151;-84
2023/06/25 08:02:37;;;;;;;14.40;11.50;;;;;;;23.83;100.00;99125.91;136891;1276;22586;-84
2023/06/25 08:05:38;;;;;;;13.70;11.80;;;;;;;23.71;100.00;99123.34;137006;1276;22267;-83
2023/06/25 08:08:39;;;;;;;13.50;11.70;;;;;;;23.65;100.00;99118.77;137019;1276;22161;-83
2023/06/25 08:11:41;;;;;;;13.40;12.00;;;;;;;23.52;100.00;99122.95;136902;1276;22572;-83
2023/06/25 08:14:42;;;;;;;13.40;12.00;;;;;;;23.50;100.00;99119.99;137031;1264;22571;-86
2023/06/25 08:17:43;;;;;;;13.00;11.10;;;;;;;23.69;100.00;99118.78;137111;1276;22129;-84
2023/06/25 08:20:46;;;;;;;14.50;11.00;;;;;;;23.74;85.25;99117.55;136794;1276;22237;-84
2023/06/25 08:23:47;;;;;;;11.90;10.70;;;;;;;23.54;62.77;99118.25;136663;1276;22577;-82
2023/06/25 08:26:48;;;;;;;15.40;10.90;;;;;;;23.61;64.67;99112.86;137192;1274;22631;-83
2023/06/25 08:29:49;;;;;;;12.70;11.10;;;;;;;23.85;64.09;99116.06;136765;1276;22868;-83
2023/06/25 08:32:50;;;;;;;14.70;11.30;;;;;;;23.91;64.15;99117.25;136905;1276;22199;-82
2023/06/25 08:35:52;;;;;;;12.20;11.10;;;;;;;24.07;63.06;99112.88;137219;1276;22280;-83
2023/06/25 08:38:53;;;;;;;11.70;10.60;;;;;;;24.09;63.35;99114.44;136854;1276;22228;-84
2023/06/25 08:41:54;;;;;;;14.10;11.40;;;;;;;24.16;62.62;99105.08;136928;1276;22338;-83
2023/06/25 08:44:55;;;;;;;13.50;11.70;;;;;;;24.37;63.56;99107.52;137285;1276;22277;-81
2023/06/25 08:47:56;;;;;;;14.70;11.40;;;;;;;24.66;63.09;99100.63;136966;1272;22248;-81
2023/06/25 08:50:57;;;;;;;13.70;10.60;;;;;;;24.82;62.84;99098.73;136959;1276;22288;-81
2023/06/25 08:53:58;;;;;;;14.80;10.60;;;;;;;24.91;60.97;99099.05;136957;1276;22506;-81
2023/06/25 08:56:59;;;;;;;11.50;10.30;;;;;;;24.91;60.52;99102.64;137122;1271;22206;-83
2023/06/25 09:00:01;;;;;;;12.20;9.80;;;;;;;24.91;60.76;99099.23;136901;1276;22540;-82
2023/06/25 09:03:02;;;;;;;11.70;10.50;;;;;;;24.88;59.43;99095.27;136977;1276;22215;-80
2023/06/25 09:06:04;;;;;;;14.10;10.70;;;;;;;25.09;59.17;99097.26;136935;1276;22570;-82
2023/06/25 09:09:05;;;;;;;16.00;11.60;;;;;;;25.36;55.18;99098.79;136818;1276;22204;-84
2023/06/25 09:12:06;;;;;;;11.10;10.10;;;;;;;25.67;57.75;99096.49;136825;1276;25278;-81
2023/06/25 09:15:07;;;;;;;11.20;10.10;;;;;;;25.39;56.44;99098.80;136608;1276;22233;-84
2023/06/25 09:18:08;;;;;;;12.20;9.70;;;;;;;25.41;55.86;99098.89;137052;1276;22562;-82
2023/06/25 09:21:10;;;;;;;9.70;8.60;;;;;;;25.39;54.84;99098.64;136799;1276;22561;-81
2023/06/25 09:24:11;;;;;;;9.20;8.10;;;;;;;25.32;54.69;99094.48;136868;1276;22531;-83
2023/06/25 09:27:12;;;;;;;8.80;7.90;;;;;;;25.54;55.67;99093.34;137106;1273;22631;-84
2023/06/25 09:30:13;;;;;;;9.40;8.60;;;;;;;25.92;55.49;99095.19;136958;1276;21972;-82
2023/06/25 09:33:16;;;;;;;10.20;8.90;;;;;;;26.17;54.20;99101.88;137189;1276;22164;-83
2023/06/25 09:36:17;;;;;;;10.60;9.60;;;;;;;25.90;53.99;99095.63;136786;1276;22219;-83
2023/06/25 09:39:18;;;;;;;9.90;9.00;;;;;;;26.12;53.77;99093.73;137050;1264;22703;-82
2023/06/25 09:42:19;;;;;;;10.00;9.00;;;;;;;26.31;53.95;99090.49;136554;1276;22791;-84
2023/06/25 09:45:20;;;;;;;12.70;8.60;;;;;;;26.08;53.88;99096.41;136344;1276;22630;-82
2023/06/25 09:48:24;;;;;;;10.00;8.80;;;;;;;25.86;54.59;99092.98;136834;1276;22550;-84
2023/06/25 09:51:26;;;;;;;11.70;8.90;;;;;;;25.77;55.02;99089.63;136876;1276;22739;-84
2023/06/25 09:54:27;;;;;;;12.00;9.30;;;;;;;25.86;54.40;99088.51;136595;1276;22609;-85
2023/06/25 09:57:28;;;;;;;9.60;8.50;;;;;;;26.00;55.27;99085.90;136870;1276;22571;-89
2023/06/25 10:00:30;;;;;;;8.90;8.00;;;;;;;25.84;55.50;99090.92;137036;1276;22248;-87
2023/06/25 10:03:37;;;;;;;9.70;8.60;;;;;;;25.43;55.35;99087.94;136685;1276;22160;-84
2023/06/25 10:06:38;;;;;;;10.40;8.60;;;;;;;25.22;56.04;99081.39;136770;1276;22546;-86
2023/06/25 10:09:39;;;;;;;11.90;10.00;;;;;;;25.27;56.67;99081.70;137076;1276;22125;-86
2023/06/25 10:12:40;;;;;;;9.60;8.40;;;;;;;25.76;55.69;99077.52;136505;1276;22220;-82
2023/06/25 10:15:42;;;;;;;9.30;8.00;;;;;;;26.06;54.53;99074.36;136546;1276;22542;-80
2023/06/25 10:18:43;;;;;;;10.40;7.40;;;;;;;26.46;53.50;99069.23;137214;1273;22197;-83
2023/06/25 10:21:44;;;;;;;8.20;7.30;;;;;;;26.61;52.99;99072.80;136698;1273;22135;-83
2023/06/25 10:24:45;;;;;;;12.00;7.80;;;;;;;26.60;52.74;99074.64;136577;1276;22265;-82
2023/06/25 10:27:46;;;;;;;8.30;7.50;;;;;;;26.40;51.53;99073.64;137201;1276;22259;-82
2023/06/25 10:30:47;;;;;;;7.90;7.20;;;;;;;26.52;53.25;99062.17;136655;1276;22964;-82
2023/06/25 10:33:48;;;;;;;7.80;7.10;;;;;;;27.31;52.34;99055.52;136696;1276;22267;-83
2023/06/25 10:36:50;;;;;;;8.20;7.40;;;;;;;27.63;49.30;99060.26;137081;1276;22570;-82
2023/06/25 10:39:51;;;;;;;9.20;7.10;;;;;;;27.19;49.93;99063.30;135975;1276;22695;-83
2023/06/25 10:42:52;;;;;;;6.90;6.30;;;;;;;27.23;49.80;99057.85;136471;1276;22231;-82
2023/06/25 10:45:53;;;;;;;9.10;6.40;;;;;;;27.36;46.63;99060.05;136794;1276;23217;-82
2023/06/25 10:48:54;;;;;;;8.30;6.30;;;;;;;27.60;46.00;99059.32;137128;1276;22169;-83
2023/06/25 10:51:55;;;;;;;7.40;6.70;;;;;;;27.50;44.15;99057.35;136625;1276;22316;-85
2023/06/25 10:54:56;;;;;;;10.60;7.30;;;;;;;27.25;45.19;99052.04;136478;1276;22914;-84
2023/06/25 10:57:57;;;;;;;8.10;7.40;;;;;;;27.32;45.34;99047.25;137125;1276;22275;-84
2023/06/25 11:00:58;;;;;;;7.40;6.70;;;;;;;27.52;45.59;99050.10;136448;1276;22228;-83
2023/06/25 11:04:00;;;;;;;8.00;7.20;;;;;;;27.65;47.22;99049.43;136432;1276;22715;-84
2023/06/25 11:07:01;;;;;;;10.70;7.50;;;;;;;27.64;46.71;99050.36;137184;1276;22139;-84
2023/06/25 11:10:02;;;;;;;7.70;6.90;;;;;;;27.47;46.88;99049.30;136442;1276;22327;-83
2023/06/25 11:13:03;;;;;;;9.40;6.90;;;;;;;27.04;48.32;99050.83;136472;1276;22647;-83
2023/06/25 11:16:04;;;;;;;9.70;7.40;;;;;;;26.26;49.73;99057.04;137107;1276;22664;-85
2023/06/25 11:19:05;;;;;;;12.40;7.30;;;;;;;25.60;52.16;99050.98;136466;1273;22366;-85
2023/06/25 11:22:06;;;;;;;9.80;7.70;;;;;;;25.13;52.72;99053.12;136344;1276;22533;-86
2023/06/25 11:25:07;;;;;;;8.40;7.20;;;;;;;24.69;53.30;99047.14;136966;1271;22566;-84
2023/06/25 11:28:09;;;;;;;7.30;6.70;;;;;;;24.45;54.26;99054.38;136749;1276;22259;-84
2023/06/25 11:31:10;;;;;;;7.20;6.50;;;;;;;24.32;53.82;99053.64;136489;1276;23190;-84
2023/06/25 11:34:11;;;;;;;9.80;7.20;;;;;;;24.12;54.38;99057.59;136822;1276;22546;-83
2023/06/25 11:37:13;;;;;;;9.40;7.30;;;;;;;24.06;55.03;99052.14;136808;1276;22260;-85
2023/06/25 11:40:14;;;;;;;9.00;6.70;;;;;;;24.16;55.44;99043.40;136572;1276;22337;-84
2023/06/25 11:43:15;;;;;;;8.10;6.90;;;;;;;24.43;54.98;99041.27;136686;1276;22547;-83
2023/06/25 11:46:17;;;;;;;14.00;7.30;;;;;;;24.54;54.35;99038.35;136898;1276;22182;-84
2023/06/25 11:49:18;;;;;;;7.70;6.90;;;;;;;24.55;54.39;99038.11;136641;1276;22772;-84
2023/06/25 11:52:19;;;;;;;7.30;6.60;;;;;;;24.65;54.08;99035.36;136540;1276;26037;-84
2023/06/25 11:55:21;;;;;;;7.70;6.90;;;;;;;24.98;51.32;99030.59;137169;1276;22241;-85
2023/06/25 11:58:22;;;;;;;7.80;6.70;;;;;;;25.37;50.58;99032.62;136574;1276;22240;-84
2023/06/25 12:01:24;;;;;;;8.30;6.70;;;;;;;25.82;48.92;99025.39;136520;1272;22667;-83
2023/06/25 12:04:25;;;;;;;8.20;6.20;;;;;;;26.23;47.42;99026.15;137157;1276;22157;-86
2023/06/25 12:07:26;;;;;;;7.20;6.50;;;;;;;26.39;46.31;99012.33;136500;1273;22705;-83
2023/06/25 12:10:27;;;;;;;8.30;6.30;;;;;;;26.55;44.83;99020.27;136533;1276;22577;-85
2023/06/25 12:13:28;;;;;;;6.80;6.20;;;;;;;26.81;44.94;99014.13;136985;1276;22183;-86
2023/06/25 12:16:32;;;;;;;7.00;6.30;;;;;;;27.14;44.20;99005.70;136512;1276;22414;-86
2023/06/25 12:19:34;;;;;;;8.60;6.30;;;;;;;27.22;44.16;99004.70;136289;1276;22620;-84
2023/06/25 12:22:35;;;;;;;6.40;5.80;;;;;;;27.46;42.30;99004.66;137014;1276;22261;-83
2023/06/25 12:25:38;;;;;;;8.20;6.10;;;;;;;27.57;41.65;98999.59;136672;1276;22227;-84
2023/06/25 12:28:40;;;;;;;8.50;6.00;;;;;;;27.61;42.20;98995.64;136599;1270;22657;-82
2023/06/25 12:31:41;;;;;;;9.50;6.00;;;;;;;27.84;44.34;98997.61;137159;1276;22334;-84
2023/06/25 12:34:43;;;;;;;10.20;9.10;;;;;;;27.75;44.54;98995.41;136522;1276;22690;-86
2023/06/25 12:37:44;;;;;;;16.60;10.10;;;;;;;27.05;45.68;98993.96;136730;1276;22557;-87
2023/06/25 12:40:46;;;;;;;7.50;6.50;;;;;;;26.62;46.24;98991.38;137143;1276;22315;-87
2023/06/25 12:43:47;;;;;;;6.80;6.20;;;;;;;26.52;47.21;98987.97;136652;1276;22200;-84
2023/06/25 12:46:49;;;;;;;9.10;6.10;;;;;;;26.48;47.18;98989.05;136584;1266;22694;-84
2023/06/25 12:49:50;;;;;;;6.30;5.80;;;;;;;26.68;45.83;98987.13;137257;1276;22230;-84
2023/06/25 12:52:51;;;;;;;6.60;6.10;;;;;;;27.13;43.77;98982.10;136649;1276;22195;-84
2023/06/25 12:55:52;;;;;;;6.70;5.50;;;;;;;27.35;42.67;98976.69;136573;1273;22543;-84
2023/06/25 12:58:54;;;;;;;7.00;6.40;;;;;;;27.54;41.64;98972.98;136834;1276;326954;-84
2023/06/25 13:01:56;;;;;;;6.20;5.70;;;;;;;27.51;39.95;98974.01;136843;1276;22812;-85
2023/06/25 13:04:57;;;;;;;6.40;5.90;;;;;;;27.63;40.42;98968.35;136578;1276;22579;-85
2023/06/25 13:07:58;;;;;;;8.80;6.10;;;;;;;27.86;39.64;98970.11;136814;1276;22554;-86
2023/06/25 13:10:59;;;;;;;7.20;6.40;;;;;;;27.92;37.56;98967.80;136823;1276;22219;-84
2023/06/25 13:14:00;;;;;;;6.70;6.10;;;;;;;27.86;38.74;98966.02;136620;1276;22168;-85
2023/06/25 13:17:02;;;;;;;8.30;6.10;;;;;;;27.54;41.92;98968.29;137067;1276;22562;-85
2023/06/25 13:20:03;;;;;;;7.60;6.30;;;;;;;26.88;43.83;98961.46;137062;1276;22620;-85
2023/06/25 13:23:04;;;;;;;8.30;6.50;;;;;;;26.53;44.61;98962.59;136585;1276;22208;-85
2023/06/25 13:26:05;;;;;;;7.40;6.80;;;;;;;26.37;44.80;98964.61;136740;1276;22499;-85
2023/06/25 13:29:07;;;;;;;10.00;6.80;;;;;;;26.13;45.07;98969.73;136701;1276;22868;-85
2023/06/25 13:32:08;;;;;;;7.40;6.70;;;;;;;25.74;45.29;98971.59;136650;1276;22137;-84
2023/06/25 13:35:09;;;;;;;10.00;6.70;;;;;;;25.51;46.03;98967.52;136662;1276;22616;-84
2023/06/25 13:38:10;;;;;;;12.30;7.20;;;;;;;25.46;46.61;98960.61;137114;1276;22547;-85
2023/06/25 13:41:11;;;;;;;8.00;6.50;;;;;;;25.49;47.12;98965.81;136706;1276;22369;-83
2023/06/25 13:44:12;;;;;;;9.70;6.70;;;;;;;25.48;47.66;98963.17;136801;1276;22573;-84